sensor_id;sensor_type;location;lat;lon;timestamp;temperature;humidity
37268;DHT22;23154;52.542;13.362;2022-12-11T00:01:57;-1.90;99.90
37268;DHT22;23154;52.542;13.362;2022-12-11T00:04:22;-1.90;99.90
37268;DHT22;23154;52.542;13.362;2022-12-11T00:06:48;-1.80;99.90
37268;DHT22;23154;52.542;13.362;2022-12-11T00:09:17;-1.80;99.90
37268;DHT22;23154;52.542;13.362;2022-12-11T00:11:42;-1.80;99.90
37268;DHT22;23154;52.542;13.362;2022-12-11T00:14:08;-1.80;99.90
37268;DHT22;23154;52.542;13.362;2022-12-11T00:16:34;-1.80;99.90
37268;DHT22;23154;52.542;13.362;2022-12-11T00:18:59;-1.80;99.90
37268;DHT22;23154;52.542;13.362;2022-12-11T00:21:25;-1.80;99.90
37268;DHT22;23154;52.542;13.362;2022-12-11T00:23:50;-1.70;99.90
37268;DHT22;23154;52.542;13.362;2022-12-11T00:26:16;-1.80;99.90
37268;DHT22;23154;52.542;13.362;2022-12-11T00:28:43;-1.80;99.90
37268;DHT22;23154;52.542;13.362;2022-12-11T00:31:10;-1.90;99.90
37268;DHT22;23154;52.542;13.362;2022-12-11T00:33:36;-1.90;99.90
37268;DHT22;23154;52.542;13.362;2022-12-11T00:36:02;-1.90;99.90
37268;DHT22;23154;52.542;13.362;2022-12-11T00:38:28;-1.90;99.90
37268;DHT22;23154;52.542;13.362;2022-12-11T00:40:56;-1.90;99.90
37268;DHT22;23154;52.542;13.362;2022-12-11T00:43:22;-1.90;99.90
37268;DHT22;23154;52.542;13.362;2022-12-11T00:45:47;-2.00;99.90
37268;DHT22;23154;52.542;13.362;2022-12-11T00:48:13;-2.00;99.90
37268;DHT22;23154;52.542;13.362;2022-12-11T00:50:39;-1.90;99.90
37268;DHT22;23154;52.542;13.362;2022-12-11T00:53:04;-1.90;99.90
37268;DHT22;23154;52.542;13.362;2022-12-11T00:55:30;-1.90;99.90
37268;DHT22;23154;52.542;13.362;2022-12-11T00:57:56;-1.90;99.90
37268;DHT22;23154;52.542;13.362;2022-12-11T01:00:22;-1.90;99.90
37268;DHT22;23154;52.542;13.362;2022-12-11T01:02:48;-1.90;99.90
37268;DHT22;23154;52.542;13.362;2022-12-11T01:05:14;-1.90;99.90
37268;DHT22;23154;52.542;13.362;2022-12-11T01:07:40;-2.00;99.90
37268;DHT22;23154;52.542;13.362;2022-12-11T01:10:05;-1.90;99.90
37268;DHT22;23154;52.542;13.362;2022-12-11T01:12:53;-1.90;99.90
37268;DHT22;23154;52.542;13.362;2022-12-11T01:15:20;-1.90;99.90
37268;DHT22;23154;52.542;13.362;2022-12-11T01:17:47;-1.90;99.90
37268;DHT22;23154;52.542;13.362;2022-12-11T01:20:13;-1.90;99.90
37268;DHT22;23154;52.542;13.362;2022-12-11T01:22:38;-1.90;99.90
37268;DHT22;23154;52.542;13.362;2022-12-11T01:25:04;-1.90;99.90
37268;DHT22;23154;52.542;13.362;2022-12-11T01:27:29;-2.00;99.90
37268;DHT22;23154;52.542;13.362;2022-12-11T01:29:55;-2.00;99.90
37268;DHT22;23154;52.542;13.362;2022-12-11T01:32:20;-2.00;99.90
37268;DHT22;23154;52.542;13.362;2022-12-11T01:34:46;-1.90;99.90
37268;DHT22;23154;52.542;13.362;2022-12-11T01:37:12;-2.00;99.90
37268;DHT22;23154;52.542;13.362;2022-12-11T01:39:37;-2.00;99.90
37268;DHT22;23154;52.542;13.362;2022-12-11T01:42:03;-2.00;99.90
37268;DHT22;23154;52.542;13.362;2022-12-11T01:46:54;-1.90;99.90
37268;DHT22;23154;52.542;13.362;2022-12-11T01:49:20;-1.90;99.90
37268;DHT22;23154;52.542;13.362;2022-12-11T01:51:51;-1.80;99.90
37268;DHT22;23154;52.542;13.362;2022-12-11T01:54:18;-1.80;99.90
37268;DHT22;23154;52.542;13.362;2022-12-11T01:56:45;-1.80;99.90
37268;DHT22;23154;52.542;13.362;2022-12-11T01:59:13;-1.80;99.90
37268;DHT22;23154;52.542;13.362;2022-12-11T02:01:40;-1.70;99.90
37268;DHT22;23154;52.542;13.362;2022-12-11T02:04:07;-1.70;99.90
37268;DHT22;23154;52.542;13.362;2022-12-11T02:08:58;-1.70;99.90
37268;DHT22;23154;52.542;13.362;2022-12-11T02:11:26;-1.90;99.90
37268;DHT22;23154;52.542;13.362;2022-12-11T02:13:56;-1.80;99.90
37268;DHT22;23154;52.542;13.362;2022-12-11T02:16:28;-1.80;99.90
37268;DHT22;23154;52.542;13.362;2022-12-11T02:19:00;-1.80;99.90
37268;DHT22;23154;52.542;13.362;2022-12-11T02:21:28;-1.80;99.90
37268;DHT22;23154;52.542;13.362;2022-12-11T02:26:40;-1.70;99.90
37268;DHT22;23154;52.542;13.362;2022-12-11T02:29:29;-1.70;99.90
37268;DHT22;23154;52.542;13.362;2022-12-11T02:32:00;-1.70;99.90
37268;DHT22;23154;52.542;13.362;2022-12-11T02:34:32;-1.80;99.90
37268;DHT22;23154;52.542;13.362;2022-12-11T02:37:02;-1.70;99.90
37268;DHT22;23154;52.542;13.362;2022-12-11T02:39:28;-1.80;99.90
37268;DHT22;23154;52.542;13.362;2022-12-11T02:41:54;-1.90;99.90
37268;DHT22;23154;52.542;13.362;2022-12-11T02:44:24;-1.90;99.90
37268;DHT22;23154;52.542;13.362;2022-12-11T02:46:51;-1.80;99.90
37268;DHT22;23154;52.542;13.362;2022-12-11T02:49:17;-1.80;99.90
37268;DHT22;23154;52.542;13.362;2022-12-11T02:51:43;-1.90;99.90
37268;DHT22;23154;52.542;13.362;2022-12-11T02:59:34;-1.90;99.90
37268;DHT22;23154;52.542;13.362;2022-12-11T03:02:01;-1.80;99.90
37268;DHT22;23154;52.542;13.362;2022-12-11T03:04:27;-1.70;99.90
37268;DHT22;23154;52.542;13.362;2022-12-11T03:06:53;-1.70;99.90
37268;DHT22;23154;52.542;13.362;2022-12-11T03:09:20;-1.80;99.90
37268;DHT22;23154;52.542;13.362;2022-12-11T03:11:46;-1.80;99.90
37268;DHT22;23154;52.542;13.362;2022-12-11T03:14:11;-1.80;99.90
37268;DHT22;23154;52.542;13.362;2022-12-11T03:16:40;-1.70;99.90
37268;DHT22;23154;52.542;13.362;2022-12-11T03:21:52;-1.70;99.90
37268;DHT22;23154;52.542;13.362;2022-12-11T03:26:53;-1.70;99.90
37268;DHT22;23154;52.542;13.362;2022-12-11T03:29:20;-1.70;99.90
37268;DHT22;23154;52.542;13.362;2022-12-11T03:31:55;-1.80;99.90
37268;DHT22;23154;52.542;13.362;2022-12-11T03:34:24;-1.80;99.90
37268;DHT22;23154;52.542;13.362;2022-12-11T03:36:51;-1.70;99.90
37268;DHT22;23154;52.542;13.362;2022-12-11T03:39:19;-1.80;99.90
37268;DHT22;23154;52.542;13.362;2022-12-11T03:41:46;-1.70;99.90
37268;DHT22;23154;52.542;13.362;2022-12-11T03:44:13;-1.80;99.90
37268;DHT22;23154;52.542;13.362;2022-12-11T03:46:38;-1.70;99.90
37268;DHT22;23154;52.542;13.362;2022-12-11T03:49:06;-1.70;99.90
37268;DHT22;23154;52.542;13.362;2022-12-11T03:51:33;-1.70;99.90
37268;DHT22;23154;52.542;13.362;2022-12-11T03:53:59;-1.80;99.90
37268;DHT22;23154;52.542;13.362;2022-12-11T03:56:25;-1.90;99.90
37268;DHT22;23154;52.542;13.362;2022-12-11T03:58:51;-1.80;99.90
37268;DHT22;23154;52.542;13.362;2022-12-11T04:01:17;-1.70;99.90
37268;DHT22;23154;52.542;13.362;2022-12-11T04:03:42;-1.60;99.90
37268;DHT22;23154;52.542;13.362;2022-12-11T04:06:08;-1.70;99.90
37268;DHT22;23154;52.542;13.362;2022-12-11T04:08:33;-1.80;99.90
37268;DHT22;23154;52.542;13.362;2022-12-11T04:11:01;-1.80;99.90
37268;DHT22;23154;52.542;13.362;2022-12-11T04:13:45;-1.80;99.90
37268;DHT22;23154;52.542;13.362;2022-12-11T04:16:30;-1.80;99.90
37268;DHT22;23154;52.542;13.362;2022-12-11T04:18:56;-1.90;99.90
37268;DHT22;23154;52.542;13.362;2022-12-11T04:21:40;-1.90;99.90
37268;DHT22;23154;52.542;13.362;2022-12-11T04:24:24;-1.90;99.90
37268;DHT22;23154;52.542;13.362;2022-12-11T04:26:50;-1.80;99.90
37268;DHT22;23154;52.542;13.362;2022-12-11T04:29:15;-1.90;99.90
37268;DHT22;23154;52.542;13.362;2022-12-11T04:31:41;-1.80;99.90
37268;DHT22;23154;52.542;13.362;2022-12-11T04:34:06;-1.80;99.90
37268;DHT22;23154;52.542;13.362;2022-12-11T04:36:32;-1.90;99.90
37268;DHT22;23154;52.542;13.362;2022-12-11T04:38:57;-1.80;99.90
37268;DHT22;23154;52.542;13.362;2022-12-11T04:41:23;-1.90;99.90
37268;DHT22;23154;52.542;13.362;2022-12-11T04:43:48;-1.90;99.90
37268;DHT22;23154;52.542;13.362;2022-12-11T04:46:16;-1.90;99.90
37268;DHT22;23154;52.542;13.362;2022-12-11T04:48:42;-1.90;99.90
37268;DHT22;23154;52.542;13.362;2022-12-11T04:51:08;-1.90;99.90
37268;DHT22;23154;52.542;13.362;2022-12-11T04:53:34;-1.90;99.90
37268;DHT22;23154;52.542;13.362;2022-12-11T04:56:00;-1.90;99.90
37268;DHT22;23154;52.542;13.362;2022-12-11T04:58:26;-1.90;99.90
37268;DHT22;23154;52.542;13.362;2022-12-11T05:00:51;-1.90;99.90
37268;DHT22;23154;52.542;13.362;2022-12-11T05:03:17;-1.90;99.90
37268;DHT22;23154;52.542;13.362;2022-12-11T05:05:47;-1.80;99.90
37268;DHT22;23154;52.542;13.362;2022-12-11T05:08:13;-1.80;99.90
37268;DHT22;23154;52.542;13.362;2022-12-11T05:10:38;-1.80;99.90
37268;DHT22;23154;52.542;13.362;2022-12-11T05:13:04;-1.80;99.90
37268;DHT22;23154;52.542;13.362;2022-12-11T05:15:29;-1.80;99.90
37268;DHT22;23154;52.542;13.362;2022-12-11T05:17:55;-1.80;99.90
37268;DHT22;23154;52.542;13.362;2022-12-11T05:20:20;-1.80;99.90
37268;DHT22;23154;52.542;13.362;2022-12-11T05:22:46;-1.80;99.90
37268;DHT22;23154;52.542;13.362;2022-12-11T05:25:11;-1.90;99.90
37268;DHT22;23154;52.542;13.362;2022-12-11T05:27:37;-1.90;99.90
37268;DHT22;23154;52.542;13.362;2022-12-11T05:30:02;-1.80;99.90
37268;DHT22;23154;52.542;13.362;2022-12-11T05:32:28;-1.90;99.90
37268;DHT22;23154;52.542;13.362;2022-12-11T05:34:53;-1.90;99.90
37268;DHT22;23154;52.542;13.362;2022-12-11T05:37:19;-2.00;99.90
37268;DHT22;23154;52.542;13.362;2022-12-11T05:39:44;-1.90;99.90
37268;DHT22;23154;52.542;13.362;2022-12-11T05:42:10;-1.90;99.90
37268;DHT22;23154;52.542;13.362;2022-12-11T05:44:35;-1.90;99.90
37268;DHT22;23154;52.542;13.362;2022-12-11T05:47:01;-1.90;99.90
37268;DHT22;23154;52.542;13.362;2022-12-11T05:49:26;-1.90;99.90
37268;DHT22;23154;52.542;13.362;2022-12-11T05:51:52;-1.90;99.90
37268;DHT22;23154;52.542;13.362;2022-12-11T05:54:17;-1.90;99.90
37268;DHT22;23154;52.542;13.362;2022-12-11T05:56:43;-1.70;99.90
37268;DHT22;23154;52.542;13.362;2022-12-11T05:59:08;-1.80;99.90
37268;DHT22;23154;52.542;13.362;2022-12-11T06:01:38;-1.70;99.90
37268;DHT22;23154;52.542;13.362;2022-12-11T06:04:05;-1.80;99.90
37268;DHT22;23154;52.542;13.362;2022-12-11T06:06:31;-1.70;99.90
37268;DHT22;23154;52.542;13.362;2022-12-11T06:08:57;-1.80;99.90
37268;DHT22;23154;52.542;13.362;2022-12-11T06:11:23;-1.80;99.90
37268;DHT22;23154;52.542;13.362;2022-12-11T06:13:48;-1.80;99.90
37268;DHT22;23154;52.542;13.362;2022-12-11T06:16:14;-1.90;99.90
37268;DHT22;23154;52.542;13.362;2022-12-11T06:18:41;-1.80;99.90
37268;DHT22;23154;52.542;13.362;2022-12-11T06:23:39;-1.90;99.90
37268;DHT22;23154;52.542;13.362;2022-12-11T06:26:05;-1.90;99.90
37268;DHT22;23154;52.542;13.362;2022-12-11T06:28:31;-2.00;99.90
37268;DHT22;23154;52.542;13.362;2022-12-11T06:30:57;-1.90;99.90
37268;DHT22;23154;52.542;13.362;2022-12-11T06:33:23;-2.00;99.90
37268;DHT22;23154;52.542;13.362;2022-12-11T06:35:48;-2.00;99.90
37268;DHT22;23154;52.542;13.362;2022-12-11T06:38:14;-2.00;99.90
37268;DHT22;23154;52.542;13.362;2022-12-11T06:40:39;-2.00;99.90
37268;DHT22;23154;52.542;13.362;2022-12-11T06:43:05;-2.10;99.90
37268;DHT22;23154;52.542;13.362;2022-12-11T06:45:30;-2.10;99.90
37268;DHT22;23154;52.542;13.362;2022-12-11T06:47:56;-2.10;99.90
37268;DHT22;23154;52.542;13.362;2022-12-11T06:50:22;-2.10;99.90
37268;DHT22;23154;52.542;13.362;2022-12-11T06:52:47;-2.10;99.90
37268;DHT22;23154;52.542;13.362;2022-12-11T06:55:13;-2.10;99.90
37268;DHT22;23154;52.542;13.362;2022-12-11T06:57:38;-2.20;99.90
37268;DHT22;23154;52.542;13.362;2022-12-11T07:00:04;-2.20;99.90
37268;DHT22;23154;52.542;13.362;2022-12-11T07:02:30;-2.20;99.90
37268;DHT22;23154;52.542;13.362;2022-12-11T07:04:56;-2.20;99.90
37268;DHT22;23154;52.542;13.362;2022-12-11T07:07:21;-2.20;99.90
37268;DHT22;23154;52.542;13.362;2022-12-11T07:09:47;-2.20;99.90
37268;DHT22;23154;52.542;13.362;2022-12-11T07:12:12;-2.20;99.90
37268;DHT22;23154;52.542;13.362;2022-12-11T07:14:38;-2.20;99.90
37268;DHT22;23154;52.542;13.362;2022-12-11T07:17:03;-2.30;99.90
37268;DHT22;23154;52.542;13.362;2022-12-11T07:19:29;-2.30;99.90
37268;DHT22;23154;52.542;13.362;2022-12-11T07:21:54;-2.30;99.90
37268;DHT22;23154;52.542;13.362;2022-12-11T07:24:20;-2.20;99.90
37268;DHT22;23154;52.542;13.362;2022-12-11T07:26:47;-2.20;99.90
37268;DHT22;23154;52.542;13.362;2022-12-11T07:29:13;-2.30;99.90
37268;DHT22;23154;52.542;13.362;2022-12-11T07:31:38;-2.20;99.90
37268;DHT22;23154;52.542;13.362;2022-12-11T07:34:04;-2.30;99.90
37268;DHT22;23154;52.542;13.362;2022-12-11T07:36:30;-2.20;99.90
37268;DHT22;23154;52.542;13.362;2022-12-11T07:38:56;-2.20;99.90
37268;DHT22;23154;52.542;13.362;2022-12-11T07:41:23;-2.30;99.90
37268;DHT22;23154;52.542;13.362;2022-12-11T07:43:48;-2.30;99.90
37268;DHT22;23154;52.542;13.362;2022-12-11T07:46:15;-2.30;99.90
37268;DHT22;23154;52.542;13.362;2022-12-11T07:48:42;-2.40;99.90
37268;DHT22;23154;52.542;13.362;2022-12-11T07:51:11;-2.40;99.90
37268;DHT22;23154;52.542;13.362;2022-12-11T07:53:39;-2.40;99.90
37268;DHT22;23154;52.542;13.362;2022-12-11T07:56:05;-2.40;99.90
37268;DHT22;23154;52.542;13.362;2022-12-11T07:58:30;-2.40;99.90
37268;DHT22;23154;52.542;13.362;2022-12-11T08:00:57;-2.40;99.90
37268;DHT22;23154;52.542;13.362;2022-12-11T08:03:27;-2.40;99.90
37268;DHT22;23154;52.542;13.362;2022-12-11T08:05:53;-2.40;99.90
37268;DHT22;23154;52.542;13.362;2022-12-11T08:08:18;-2.50;99.90
37268;DHT22;23154;52.542;13.362;2022-12-11T08:10:44;-2.50;99.90
37268;DHT22;23154;52.542;13.362;2022-12-11T08:13:10;-2.50;99.90
37268;DHT22;23154;52.542;13.362;2022-12-11T08:15:36;-2.40;99.90
37268;DHT22;23154;52.542;13.362;2022-12-11T08:18:01;-2.30;99.90
37268;DHT22;23154;52.542;13.362;2022-12-11T08:20:27;-2.40;99.90
37268;DHT22;23154;52.542;13.362;2022-12-11T08:22:53;-2.40;99.90
37268;DHT22;23154;52.542;13.362;2022-12-11T08:25:18;-2.40;99.90
37268;DHT22;23154;52.542;13.362;2022-12-11T08:27:44;-2.30;99.90
37268;DHT22;23154;52.542;13.362;2022-12-11T08:30:09;-2.30;99.90
37268;DHT22;23154;52.542;13.362;2022-12-11T08:32:35;-2.20;99.90
37268;DHT22;23154;52.542;13.362;2022-12-11T08:35:00;-2.20;99.90
37268;DHT22;23154;52.542;13.362;2022-12-11T08:37:26;-2.20;99.90
37268;DHT22;23154;52.542;13.362;2022-12-11T08:39:52;-2.20;99.90
37268;DHT22;23154;52.542;13.362;2022-12-11T08:42:17;-2.20;99.90
37268;DHT22;23154;52.542;13.362;2022-12-11T08:44:43;-2.10;99.90
37268;DHT22;23154;52.542;13.362;2022-12-11T08:47:08;-2.00;99.90
37268;DHT22;23154;52.542;13.362;2022-12-11T08:49:34;-2.10;99.90
37268;DHT22;23154;52.542;13.362;2022-12-11T08:52:02;-2.10;99.90
37268;DHT22;23154;52.542;13.362;2022-12-11T08:54:27;-2.10;99.90
37268;DHT22;23154;52.542;13.362;2022-12-11T08:56:53;-2.10;99.90
37268;DHT22;23154;52.542;13.362;2022-12-11T08:59:18;-2.20;99.90
37268;DHT22;23154;52.542;13.362;2022-12-11T09:01:44;-2.10;99.90
37268;DHT22;23154;52.542;13.362;2022-12-11T09:04:09;-2.00;99.90
37268;DHT22;23154;52.542;13.362;2022-12-11T09:06:35;-2.00;99.90
37268;DHT22;23154;52.542;13.362;2022-12-11T09:09:01;-1.90;99.90
37268;DHT22;23154;52.542;13.362;2022-12-11T09:11:28;-1.90;99.90
37268;DHT22;23154;52.542;13.362;2022-12-11T09:13:54;-2.00;99.90
37268;DHT22;23154;52.542;13.362;2022-12-11T09:16:21;-2.10;99.90
37268;DHT22;23154;52.542;13.362;2022-12-11T09:18:48;-2.20;99.90
37268;DHT22;23154;52.542;13.362;2022-12-11T09:21:15;-2.20;99.90
37268;DHT22;23154;52.542;13.362;2022-12-11T09:23:41;-2.20;99.90
37268;DHT22;23154;52.542;13.362;2022-12-11T09:26:07;-2.10;99.90
37268;DHT22;23154;52.542;13.362;2022-12-11T09:28:35;-2.00;99.90
37268;DHT22;23154;52.542;13.362;2022-12-11T09:31:06;-1.90;99.90
37268;DHT22;23154;52.542;13.362;2022-12-11T09:33:31;-1.80;99.90
37268;DHT22;23154;52.542;13.362;2022-12-11T09:36:00;-1.70;99.90
37268;DHT22;23154;52.542;13.362;2022-12-11T09:38:27;-1.70;99.90
37268;DHT22;23154;52.542;13.362;2022-12-11T09:40:52;-1.70;99.90
37268;DHT22;23154;52.542;13.362;2022-12-11T09:45:47;-1.80;99.90
37268;DHT22;23154;52.542;13.362;2022-12-11T09:48:13;-1.80;99.90
37268;DHT22;23154;52.542;13.362;2022-12-11T09:50:40;-1.90;99.90
37268;DHT22;23154;52.542;13.362;2022-12-11T09:53:08;-1.90;99.90
37268;DHT22;23154;52.542;13.362;2022-12-11T09:55:45;-1.90;99.90
37268;DHT22;23154;52.542;13.362;2022-12-11T10:01:02;-1.80;99.90
37268;DHT22;23154;52.542;13.362;2022-12-11T10:03:36;-1.80;99.90
37268;DHT22;23154;52.542;13.362;2022-12-11T10:11:14;-1.80;99.90
37268;DHT22;23154;52.542;13.362;2022-12-11T10:16:19;-1.80;99.90
37268;DHT22;23154;52.542;13.362;2022-12-11T10:18:49;-1.80;99.90
37268;DHT22;23154;52.542;13.362;2022-12-11T10:21:15;-1.60;99.90
37268;DHT22;23154;52.542;13.362;2022-12-11T10:23:45;-1.60;99.90
37268;DHT22;23154;52.542;13.362;2022-12-11T10:26:15;-1.60;99.90
37268;DHT22;23154;52.542;13.362;2022-12-11T10:28:42;-1.70;99.90
37268;DHT22;23154;52.542;13.362;2022-12-11T10:31:17;-1.80;99.90
37268;DHT22;23154;52.542;13.362;2022-12-11T10:34:03;-1.80;99.90
37268;DHT22;23154;52.542;13.362;2022-12-11T10:36:29;-1.90;99.90
37268;DHT22;23154;52.542;13.362;2022-12-11T10:38:55;-1.90;99.90
37268;DHT22;23154;52.542;13.362;2022-12-11T10:41:22;-1.80;99.90
37268;DHT22;23154;52.542;13.362;2022-12-11T10:43:49;-2.00;99.90
37268;DHT22;23154;52.542;13.362;2022-12-11T10:46:17;-1.80;99.90
37268;DHT22;23154;52.542;13.362;2022-12-11T10:48:53;-1.70;99.90
37268;DHT22;23154;52.542;13.362;2022-12-11T10:51:22;-1.80;99.90
37268;DHT22;23154;52.542;13.362;2022-12-11T10:53:52;-1.60;99.90
37268;DHT22;23154;52.542;13.362;2022-12-11T10:56:28;-1.50;99.90
37268;DHT22;23154;52.542;13.362;2022-12-11T10:58:55;-1.50;99.90
37268;DHT22;23154;52.542;13.362;2022-12-11T11:01:22;-1.50;99.90
37268;DHT22;23154;52.542;13.362;2022-12-11T11:04:04;-1.50;99.90
37268;DHT22;23154;52.542;13.362;2022-12-11T11:06:30;-1.50;99.90
37268;DHT22;23154;52.542;13.362;2022-12-11T11:08:57;-1.50;99.90
37268;DHT22;23154;52.542;13.362;2022-12-11T11:11:33;-1.40;99.90
37268;DHT22;23154;52.542;13.362;2022-12-11T11:14:05;-1.50;99.90
37268;DHT22;23154;52.542;13.362;2022-12-11T11:16:30;-1.50;99.90
37268;DHT22;23154;52.542;13.362;2022-12-11T11:18:56;-1.50;99.90
37268;DHT22;23154;52.542;13.362;2022-12-11T11:21:23;-1.40;99.90
37268;DHT22;23154;52.542;13.362;2022-12-11T11:23:49;-1.30;99.90
37268;DHT22;23154;52.542;13.362;2022-12-11T11:26:15;-1.30;99.90
37268;DHT22;23154;52.542;13.362;2022-12-11T11:28:41;-1.50;99.90
37268;DHT22;23154;52.542;13.362;2022-12-11T11:31:12;-1.40;99.90
37268;DHT22;23154;52.542;13.362;2022-12-11T11:33:49;-1.30;99.90
37268;DHT22;23154;52.542;13.362;2022-12-11T11:36:21;-1.30;99.90
37268;DHT22;23154;52.542;13.362;2022-12-11T11:38:58;-1.20;99.90
37268;DHT22;23154;52.542;13.362;2022-12-11T11:44:05;-1.20;99.90
37268;DHT22;23154;52.542;13.362;2022-12-11T11:46:33;-1.20;99.90
37268;DHT22;23154;52.542;13.362;2022-12-11T11:51:46;-1.10;99.90
37268;DHT22;23154;52.542;13.362;2022-12-11T11:56:57;-1.20;99.90
37268;DHT22;23154;52.542;13.362;2022-12-11T11:59:28;-1.20;99.90
37268;DHT22;23154;52.542;13.362;2022-12-11T12:01:55;-1.10;99.90
37268;DHT22;23154;52.542;13.362;2022-12-11T12:04:21;-1.10;99.90
37268;DHT22;23154;52.542;13.362;2022-12-11T12:09:16;-1.00;99.90
37268;DHT22;23154;52.542;13.362;2022-12-11T12:11:48;-1.00;99.90
37268;DHT22;23154;52.542;13.362;2022-12-11T12:19:33;-1.00;99.90
37268;DHT22;23154;52.542;13.362;2022-12-11T12:22:06;-1.00;99.90
37268;DHT22;23154;52.542;13.362;2022-12-11T12:24:40;-1.00;99.90
37268;DHT22;23154;52.542;13.362;2022-12-11T12:27:17;-1.10;99.90
37268;DHT22;23154;52.542;13.362;2022-12-11T12:33:09;-1.10;99.90
37268;DHT22;23154;52.542;13.362;2022-12-11T12:35:33;-1.20;99.90
37268;DHT22;23154;52.542;13.362;2022-12-11T12:38:09;-1.10;99.90
37268;DHT22;23154;52.542;13.362;2022-12-11T12:41:02;-1.10;99.90
37268;DHT22;23154;52.542;13.362;2022-12-11T12:43:46;-1.00;99.90
37268;DHT22;23154;52.542;13.362;2022-12-11T12:46:30;-0.90;99.90
37268;DHT22;23154;52.542;13.362;2022-12-11T12:48:58;-0.90;99.90
37268;DHT22;23154;52.542;13.362;2022-12-11T12:51:25;-0.90;99.90
37268;DHT22;23154;52.542;13.362;2022-12-11T12:53:53;-0.80;99.90
37268;DHT22;23154;52.542;13.362;2022-12-11T12:56:19;-0.80;99.90
37268;DHT22;23154;52.542;13.362;2022-12-11T12:58:46;-0.90;99.90
37268;DHT22;23154;52.542;13.362;2022-12-11T13:06:28;-0.90;99.90
37268;DHT22;23154;52.542;13.362;2022-12-11T13:08:54;-0.90;99.90
37268;DHT22;23154;52.542;13.362;2022-12-11T13:11:20;-0.90;99.90
37268;DHT22;23154;52.542;13.362;2022-12-11T13:16:52;-0.90;99.90
37268;DHT22;23154;52.542;13.362;2022-12-11T13:19:28;-0.90;99.90
37268;DHT22;23154;52.542;13.362;2022-12-11T13:24:45;-0.90;99.90
37268;DHT22;23154;52.542;13.362;2022-12-11T13:27:21;-1.00;99.90
37268;DHT22;23154;52.542;13.362;2022-12-11T13:29:47;-0.90;99.90
37268;DHT22;23154;52.542;13.362;2022-12-11T13:34:38;-0.90;99.90
37268;DHT22;23154;52.542;13.362;2022-12-11T13:37:04;-0.80;99.90
37268;DHT22;23154;52.542;13.362;2022-12-11T13:39:33;-0.90;99.90
37268;DHT22;23154;52.542;13.362;2022-12-11T13:42:18;-0.80;99.90
37268;DHT22;23154;52.542;13.362;2022-12-11T13:44:45;-0.80;99.90
37268;DHT22;23154;52.542;13.362;2022-12-11T13:47:12;-0.90;99.90
37268;DHT22;23154;52.542;13.362;2022-12-11T13:49:39;-0.90;99.90
37268;DHT22;23154;52.542;13.362;2022-12-11T13:52:05;-1.00;99.90
37268;DHT22;23154;52.542;13.362;2022-12-11T13:54:32;-0.90;99.90
37268;DHT22;23154;52.542;13.362;2022-12-11T13:57:00;-0.90;99.90
37268;DHT22;23154;52.542;13.362;2022-12-11T13:59:27;-1.00;99.90
37268;DHT22;23154;52.542;13.362;2022-12-11T14:01:57;-1.00;99.90
37268;DHT22;23154;52.542;13.362;2022-12-11T14:04:24;-1.10;99.90
37268;DHT22;23154;52.542;13.362;2022-12-11T14:06:52;-1.00;99.90
37268;DHT22;23154;52.542;13.362;2022-12-11T14:09:19;-1.00;99.90
37268;DHT22;23154;52.542;13.362;2022-12-11T14:11:47;-1.10;99.90
37268;DHT22;23154;52.542;13.362;2022-12-11T14:14:20;-1.00;99.90
37268;DHT22;23154;52.542;13.362;2022-12-11T14:16:50;-1.10;99.90
37268;DHT22;23154;52.542;13.362;2022-12-11T14:19:17;-1.10;99.90
37268;DHT22;23154;52.542;13.362;2022-12-11T14:21:53;-1.10;99.90
37268;DHT22;23154;52.542;13.362;2022-12-11T14:24:18;-1.10;99.90
37268;DHT22;23154;52.542;13.362;2022-12-11T14:26:48;-1.20;99.90
37268;DHT22;23154;52.542;13.362;2022-12-11T14:31:49;-1.20;99.90
37268;DHT22;23154;52.542;13.362;2022-12-11T14:34:16;-1.30;99.90
37268;DHT22;23154;52.542;13.362;2022-12-11T14:36:43;-1.30;99.90
37268;DHT22;23154;52.542;13.362;2022-12-11T14:39:11;-1.40;99.90
37268;DHT22;23154;52.542;13.362;2022-12-11T14:41:41;-1.30;99.90
37268;DHT22;23154;52.542;13.362;2022-12-11T14:44:11;-1.30;99.90
37268;DHT22;23154;52.542;13.362;2022-12-11T14:46:43;-1.30;99.90
37268;DHT22;23154;52.542;13.362;2022-12-11T14:49:53;-1.30;99.90
37268;DHT22;23154;52.542;13.362;2022-12-11T14:51:58;-1.30;99.90
37268;DHT22;23154;52.542;13.362;2022-12-11T14:54:31;-1.40;99.90
37268;DHT22;23154;52.542;13.362;2022-12-11T14:56:59;-1.40;99.90
37268;DHT22;23154;52.542;13.362;2022-12-11T14:59:25;-1.40;99.90
37268;DHT22;23154;52.542;13.362;2022-12-11T15:01:58;-1.40;99.90
37268;DHT22;23154;52.542;13.362;2022-12-11T15:04:30;-1.40;99.90
37268;DHT22;23154;52.542;13.362;2022-12-11T15:06:56;-1.40;99.90
37268;DHT22;23154;52.542;13.362;2022-12-11T15:12:10;-1.30;99.90
37268;DHT22;23154;52.542;13.362;2022-12-11T15:14:40;-1.30;99.90
37268;DHT22;23154;52.542;13.362;2022-12-11T15:17:09;-1.30;99.90
37268;DHT22;23154;52.542;13.362;2022-12-11T15:19:36;-1.30;99.90
37268;DHT22;23154;52.542;13.362;2022-12-11T15:22:05;-1.20;99.90
37268;DHT22;23154;52.542;13.362;2022-12-11T15:26:58;-1.10;99.90
37268;DHT22;23154;52.542;13.362;2022-12-11T15:29:32;-1.10;99.90
37268;DHT22;23154;52.542;13.362;2022-12-11T15:31:59;-1.20;99.90
37268;DHT22;23154;52.542;13.362;2022-12-11T15:34:25;-1.30;99.90
37268;DHT22;23154;52.542;13.362;2022-12-11T15:36:57;-1.20;99.90
37268;DHT22;23154;52.542;13.362;2022-12-11T15:39:23;-1.30;99.90
37268;DHT22;23154;52.542;13.362;2022-12-11T15:41:48;-1.20;99.90
37268;DHT22;23154;52.542;13.362;2022-12-11T15:44:18;-1.20;99.90
37268;DHT22;23154;52.542;13.362;2022-12-11T15:46:45;-1.20;99.90
37268;DHT22;23154;52.542;13.362;2022-12-11T15:49:11;-1.20;99.90
37268;DHT22;23154;52.542;13.362;2022-12-11T15:51:37;-1.30;99.90
37268;DHT22;23154;52.542;13.362;2022-12-11T15:54:02;-1.30;99.90
37268;DHT22;23154;52.542;13.362;2022-12-11T15:56:28;-1.30;99.90
37268;DHT22;23154;52.542;13.362;2022-12-11T15:58:54;-1.30;99.90
37268;DHT22;23154;52.542;13.362;2022-12-11T16:01:20;-1.30;99.90
37268;DHT22;23154;52.542;13.362;2022-12-11T16:03:46;-1.30;99.90
37268;DHT22;23154;52.542;13.362;2022-12-11T16:06:11;-1.20;99.90
37268;DHT22;23154;52.542;13.362;2022-12-11T16:08:37;-1.30;99.90
37268;DHT22;23154;52.542;13.362;2022-12-11T16:11:02;-1.30;99.90
37268;DHT22;23154;52.542;13.362;2022-12-11T16:13:28;-1.30;99.90
37268;DHT22;23154;52.542;13.362;2022-12-11T16:15:54;-1.40;99.90
37268;DHT22;23154;52.542;13.362;2022-12-11T16:18:22;-1.30;99.90
37268;DHT22;23154;52.542;13.362;2022-12-11T16:20:48;-1.30;99.90
37268;DHT22;23154;52.542;13.362;2022-12-11T16:23:14;-1.30;99.90
37268;DHT22;23154;52.542;13.362;2022-12-11T16:25:41;-1.30;99.90
37268;DHT22;23154;52.542;13.362;2022-12-11T16:28:07;-1.30;99.90
37268;DHT22;23154;52.542;13.362;2022-12-11T16:30:34;-1.30;99.90
37268;DHT22;23154;52.542;13.362;2022-12-11T16:32:59;-1.30;99.90